• Join FlightAware (Why Join?)
  • Login
  • US Flag 
12:14PM EDT


 

Airport Tracker/Info


-or-


 

Live Flight TrackerFlight Track Log ✈ DAL6115 ✈ 26-Jul-2014 ✈ KDAY - KDTW

Flight Track Log - Related Links

Times and Time Zones

All times are in EDT time to prevent confusion due to time zone crossing. See the DAL6115 flight status page for this flight to view local times or setup timezone preferences in your user account.

Time Position Orientation Groundspeed Altitude Reporting Facility
EDT Latitude Longitude Course Direction KTS MPH feet Rate Location/Type
06:02PM 39.9000 -84.2394 North 153 176 1,300  Level Indianapolis Center
06:04PM 39.8939 -84.3275 265° West 208 239 4,000 1,920 Climbing Indianapolis Center
06:05PM 39.9372 -84.3822 316° Northwest 253 291 6,000 1,440 Climbing Indianapolis Center
06:06PM 40.0103 -84.3944 353° North 271 312 7,000 480 Climbing Indianapolis Center
06:07PM 40.2577 -84.4000 North  Level FlightAware Approximate
06:07PM 40.0847 -84.3992 357° North 267 307 7,100  Level Indianapolis Center
06:08PM 40.3432 -84.4000 North  Level FlightAware Approximate
06:08PM 40.1589 -84.4000 360° North 267 307 7,600  Level Indianapolis Center
06:09PM 40.2489 -84.4031 359° North 267 307 10,200 1,680 Climbing Indianapolis Center
06:10PM 40.3308 -84.4050 359° North 283 326 11,100 840 Climbing Indianapolis Center
06:11PM 40.4236 -84.4072 359° North 317 365 12,000 780 Climbing Indianapolis Center
06:12PM 40.5219 -84.4106 359° North 343 395 12,800 780 Climbing Indianapolis Center
06:13PM 40.6222 -84.4133 359° North 352 405 13,700 540 Climbing Indianapolis Center
06:14PM 40.7256 -84.4167 359° North 365 420 14,000 120 Climbing Indianapolis Center
06:15PM 40.8308 -84.4192 359° North 375 432 14,000  Level Indianapolis Center
06:16PM 40.9467 -84.4219 359° North 376 433 14,000  Level Cleveland Center
06:17PM 41.0522 -84.4247 359° North 379 436 14,000  Level Cleveland Center
06:18PM 41.1767 -84.4269 359° North 378 435 14,000  Level Cleveland Center
06:19PM 41.2811 -84.4317 358° North 377 434 14,000  Level Cleveland Center
06:20PM 41.3875 -84.4333 359° North 382 440 14,000  Level Cleveland Center
06:21PM 41.4903 -84.4083 10° North 392 451 14,000  Level Cleveland Center
06:22PM 41.5767 -84.3144 39° Northeast 403 464 14,000 -660 Level Cleveland Center
06:23PM 41.6731 -84.2106 39° Northeast 403 464 12,700 -1,020 Descending Cleveland Center
06:24PM 41.7531 -84.1192 40° Northeast 386 444 12,000 -480 Descending Cleveland Center
06:25PM 41.8033 -84.0644 39° Northeast 323 372 12,000  Level Cleveland Center
06:25PM 41.8239 -84.0394 42° Northeast 333 383 12,000  Level Cleveland Center
06:26PM 41.8611 -83.9778 51° Northeast 323 372 12,000  Level Cleveland Center
06:26PM 41.8797 -83.9481 50° Northeast 318 366 12,000  Level Cleveland Center
06:27PM 41.9122 -83.8928 52° Northeast 320 368 12,000  Level Cleveland Center
06:27PM 41.9447 -83.8344 53° Northeast 319 367 12,000  Level Cleveland Center
06:28PM 41.9661 -83.7969 53° Northeast 323 372 12,000  Level Cleveland Center
06:29PM 42.0025 -83.7417 48° Northeast 322 371 12,000  Level Cleveland Center
06:29PM 42.0233 -83.7153 43° Northeast 318 366 12,000  Level Cleveland Center
06:30PM 42.0653 -83.6594 45° Northeast 321 369 12,000  Level Cleveland Center
06:30PM 42.0936 -83.6214 45° Northeast 317 365 12,000  Level Cleveland Center
06:31PM 42.1289 -83.5769 43° Northeast 318 366 12,000  Level Cleveland Center
06:31PM 42.1572 -83.5603 24° Northeast 292 336 12,000 -900 Level Cleveland Center
06:32PM 42.2019 -83.5297 27° Northeast 267 307 11,100 -1,320 Descending Cleveland Center
06:32PM 42.2217 -83.5158 28° Northeast 252 290 10,700 -1,380 Descending Cleveland Center
06:33PM 42.2681 -83.4864 25° Northeast 265 305 9,700 -1,500 Descending Cleveland Center
06:33PM 42.2875 -83.4775 19° North 251 289 9,200 -1,560 Descending Cleveland Center
06:34PM 42.3514 -83.4386 24° Northeast 248 285 7,800 -1,320 Descending Cleveland Center
06:35PM 42.3939 -83.4122 25° Northeast 247 284 6,900 -1,500 Descending Cleveland Center
06:35PM 42.4153 -83.3994 24° Northeast 240 276 6,300 -1,860 Descending Cleveland Center
06:36PM 42.4539 -83.3758 24° Northeast 244 281 5,000 -1,920 Descending Cleveland Center
06:36PM 42.4789 -83.3633 20° North 242 278 4,400 -1,020 Descending Cleveland Center
06:37PM 42.5297 -83.3381 20° North 244 281 4,000 -360 Descending Cleveland Center
06:37PM 42.5483 -83.3306 17° North 242 278 4,000  Level Cleveland Center
06:38PM 42.5919 -83.3047 24° Northeast 243 280 4,000  Level Cleveland Center
06:39PM 42.6294 -83.2494 47° Northeast 217 250 4,000  Level Cleveland Center
06:39PM 42.6314 -83.2317 82° East 196 226 4,000  Level Cleveland Center
06:40PM 42.6219 -83.1778 103° East 202 232 4,000  Level Cleveland Center
06:40PM 42.6078 -83.1575 134° Southeast 193 222 4,000  Level Cleveland Center
06:41PM 42.5794 -83.1478 166° South 195 224 4,000  Level Cleveland Center
06:41PM 42.5581 -83.1506 185° South 180 207 4,000  Level Cleveland Center
06:42PM 42.5092 -83.1581 186° South 177 204 4,000  Level Cleveland Center
06:43PM 42.4694 -83.1836 205° Southwest 172 198 4,000  Level Cleveland Center
06:44PM 42.4339 -83.2122 211° Southwest 175 201 4,000  Level Cleveland Center
06:44PM 42.4225 -83.2225 214° Southwest 177 204 4,000  Level Cleveland Center
06:45PM 42.3903 -83.2450 207° Southwest 175 201 4,000 -120 Level Cleveland Center
06:45PM 42.3783 -83.2531 206° Southwest 176 203 3,900 -840 Descending Cleveland Center
06:46PM 42.3383 -83.2842 210° Southwest 176 203 3,100 -840 Descending Cleveland Center
06:47PM 42.3056 -83.3078 208° Southwest 175 201 2,400 -780 Descending Cleveland Center
06:48PM 42.2706 -83.3339 209° Southwest 158 182 1,600 -780 Descending Cleveland Center
06:48PM 42.2561 -83.3431 205° Southwest 141 162 1,400 -720 Descending Cleveland Center
06:49PM 42.2361 -83.3594 211° Southwest 146 168 900 -360 Descending Cleveland Center
06:50PM 42.2028 -83.3850 210° Southwest 144 166 800 -120 Descending Cleveland Center